sensor_id;sensor_type;location;lat;lon;timestamp;pressure;altitude;pressure_sealevel;temperature;humidity
2339;BME280;1180;51.438;6.978;2023-03-04T00:01:14;101185.41;;;8.02;68.11
2339;BME280;1180;51.438;6.978;2023-03-04T00:03:40;101183.72;;;8.27;66.95
2339;BME280;1180;51.438;6.978;2023-03-04T00:06:06;101186.56;;;8.19;67.46
2339;BME280;1180;51.438;6.978;2023-03-04T00:08:31;101186.91;;;8.08;67.62
2339;BME280;1180;51.438;6.978;2023-03-04T00:10:57;101190.91;;;8.17;67.33
2339;BME280;1180;51.438;6.978;2023-03-04T00:13:22;101184.47;;;8.05;67.55
2339;BME280;1180;51.438;6.978;2023-03-04T00:15:48;101185.31;;;8.31;67.19
2339;BME280;1180;51.438;6.978;2023-03-04T00:18:13;101181.97;;;8.29;66.87
2339;BME280;1180;51.438;6.978;2023-03-04T00:20:39;101185.09;;;8.37;67.06
2339;BME280;1180;51.438;6.978;2023-03-04T00:23:04;101181.84;;;8.06;67.10
2339;BME280;1180;51.438;6.978;2023-03-04T00:25:30;101186.25;;;8.03;67.57
2339;BME280;1180;51.438;6.978;2023-03-04T00:27:55;101180.28;;;8.02;67.79
2339;BME280;1180;51.438;6.978;2023-03-04T00:30:22;101177.78;;;8.01;68.10
2339;BME280;1180;51.438;6.978;2023-03-04T00:32:48;101184.78;;;8.21;67.68
2339;BME280;1180;51.438;6.978;2023-03-04T00:35:13;101179.97;;;8.12;67.35
2339;BME280;1180;51.438;6.978;2023-03-04T00:37:39;101174.25;;;8.05;67.57
2339;BME280;1180;51.438;6.978;2023-03-04T00:40:05;101175.94;;;8.04;67.90
2339;BME280;1180;51.438;6.978;2023-03-04T00:42:30;101180.69;;;7.90;68.57
2339;BME280;1180;51.438;6.978;2023-03-04T00:44:56;101171.13;;;7.97;68.63
2339;BME280;1180;51.438;6.978;2023-03-04T00:47:21;101173.72;;;8.20;68.18
2339;BME280;1180;51.438;6.978;2023-03-04T00:49:47;101175.47;;;8.18;67.84
2339;BME280;1180;51.438;6.978;2023-03-04T00:52:12;101171.00;;;8.00;68.39
2339;BME280;1180;51.438;6.978;2023-03-04T00:54:38;101169.56;;;8.18;68.07
2339;BME280;1180;51.438;6.978;2023-03-04T00:57:03;101171.19;;;7.93;68.63
2339;BME280;1180;51.438;6.978;2023-03-04T00:59:29;101167.84;;;7.91;68.89
2339;BME280;1180;51.438;6.978;2023-03-04T01:01:55;101156.03;;;8.14;68.78
2339;BME280;1180;51.438;6.978;2023-03-04T01:04:20;101163.03;;;8.09;67.90
2339;BME280;1180;51.438;6.978;2023-03-04T01:06:45;101157.03;;;8.10;68.22
2339;BME280;1180;51.438;6.978;2023-03-04T01:09:11;101164.94;;;8.28;67.88
2339;BME280;1180;51.438;6.978;2023-03-04T01:11:37;101157.22;;;8.29;67.60
2339;BME280;1180;51.438;6.978;2023-03-04T01:14:02;101159.63;;;8.08;68.38
2339;BME280;1180;51.438;6.978;2023-03-04T01:16:28;101159.06;;;8.00;68.78
2339;BME280;1180;51.438;6.978;2023-03-04T01:18:53;101153.22;;;7.97;69.23
2339;BME280;1180;51.438;6.978;2023-03-04T01:21:18;101150.91;;;7.89;68.99
2339;BME280;1180;51.438;6.978;2023-03-04T01:23:44;101157.06;;;8.08;69.15
2339;BME280;1180;51.438;6.978;2023-03-04T01:26:09;101147.53;;;8.37;68.34
2339;BME280;1180;51.438;6.978;2023-03-04T01:28:35;101147.91;;;8.27;68.39
2339;BME280;1180;51.438;6.978;2023-03-04T01:31:01;101147.94;;;8.01;68.78
2339;BME280;1180;51.438;6.978;2023-03-04T01:33:27;101144.28;;;8.08;68.68
2339;BME280;1180;51.438;6.978;2023-03-04T01:35:53;101150.47;;;8.03;68.82
2339;BME280;1180;51.438;6.978;2023-03-04T01:38:22;101139.56;;;7.98;69.08
2339;BME280;1180;51.438;6.978;2023-03-04T01:40:48;101143.38;;;8.09;69.21
2339;BME280;1180;51.438;6.978;2023-03-04T01:43:34;101138.19;;;7.87;69.67
2339;BME280;1180;51.438;6.978;2023-03-04T01:46:01;101137.50;;;8.07;69.51
2339;BME280;1180;51.438;6.978;2023-03-04T01:48:36;101145.94;;;7.84;69.29
2339;BME280;1180;51.438;6.978;2023-03-04T01:51:11;101138.16;;;7.89;69.51
2339;BME280;1180;51.438;6.978;2023-03-04T01:53:37;101139.34;;;8.04;69.10
2339;BME280;1180;51.438;6.978;2023-03-04T01:56:24;101141.59;;;7.88;69.64
2339;BME280;1180;51.438;6.978;2023-03-04T01:59:11;101138.47;;;8.05;69.04
2339;BME280;1180;51.438;6.978;2023-03-04T02:01:38;101136.69;;;7.82;69.47
2339;BME280;1180;51.438;6.978;2023-03-04T02:04:05;101135.22;;;8.00;68.98
2339;BME280;1180;51.438;6.978;2023-03-04T02:06:33;101137.19;;;7.91;69.04
2339;BME280;1180;51.438;6.978;2023-03-04T02:08:58;101132.13;;;7.64;70.46
2339;BME280;1180;51.438;6.978;2023-03-04T02:11:24;101124.84;;;7.79;70.24
2339;BME280;1180;51.438;6.978;2023-03-04T02:13:51;101128.59;;;7.94;70.02
2339;BME280;1180;51.438;6.978;2023-03-04T02:16:16;101129.72;;;7.85;69.01
2339;BME280;1180;51.438;6.978;2023-03-04T02:18:42;101125.69;;;7.53;70.95
2339;BME280;1180;51.438;6.978;2023-03-04T02:26:18;101123.44;;;7.95;69.94
2339;BME280;1180;51.438;6.978;2023-03-04T02:28:47;101123.94;;;8.05;69.73
2339;BME280;1180;51.438;6.978;2023-03-04T02:31:26;101120.97;;;7.92;69.87
2339;BME280;1180;51.438;6.978;2023-03-04T02:33:55;101121.91;;;7.90;69.97
2339;BME280;1180;51.438;6.978;2023-03-04T02:36:22;101116.94;;;7.85;70.44
2339;BME280;1180;51.438;6.978;2023-03-04T02:38:52;101122.41;;;7.74;70.98
2339;BME280;1180;51.438;6.978;2023-03-04T02:41:21;101117.59;;;7.40;72.01
2339;BME280;1180;51.438;6.978;2023-03-04T02:43:50;101116.66;;;7.15;72.36
2339;BME280;1180;51.438;6.978;2023-03-04T02:46:17;101112.06;;;6.98;73.41
2339;BME280;1180;51.438;6.978;2023-03-04T02:48:42;101114.03;;;7.17;72.94
2339;BME280;1180;51.438;6.978;2023-03-04T02:51:08;101104.94;;;7.36;72.15
2339;BME280;1180;51.438;6.978;2023-03-04T02:53:33;101102.31;;;7.38;71.58
2339;BME280;1180;51.438;6.978;2023-03-04T02:55:59;101105.97;;;7.56;71.56
2339;BME280;1180;51.438;6.978;2023-03-04T02:58:24;101103.34;;;7.32;71.75
2339;BME280;1180;51.438;6.978;2023-03-04T03:00:50;101102.56;;;7.30;72.28
2339;BME280;1180;51.438;6.978;2023-03-04T03:03:15;101102.59;;;7.29;72.69
2339;BME280;1180;51.438;6.978;2023-03-04T03:05:40;101095.41;;;7.42;72.36
2339;BME280;1180;51.438;6.978;2023-03-04T03:08:06;101100.78;;;7.59;71.87
2339;BME280;1180;51.438;6.978;2023-03-04T03:10:32;101095.72;;;7.58;71.56
2339;BME280;1180;51.438;6.978;2023-03-04T03:12:57;101088.06;;;7.58;70.78
2339;BME280;1180;51.438;6.978;2023-03-04T03:15:23;101088.81;;;7.34;71.70
2339;BME280;1180;51.438;6.978;2023-03-04T03:17:48;101090.66;;;7.56;71.78
2339;BME280;1180;51.438;6.978;2023-03-04T03:20:15;101092.38;;;7.56;71.27
2339;BME280;1180;51.438;6.978;2023-03-04T03:22:41;101093.63;;;7.69;70.86
2339;BME280;1180;51.438;6.978;2023-03-04T03:25:07;101086.72;;;7.47;70.48
2339;BME280;1180;51.438;6.978;2023-03-04T03:27:33;101080.66;;;7.23;71.82
2339;BME280;1180;51.438;6.978;2023-03-04T03:29:59;101083.53;;;7.39;71.86
2339;BME280;1180;51.438;6.978;2023-03-04T03:32:24;101079.38;;;7.63;71.87
2339;BME280;1180;51.438;6.978;2023-03-04T03:34:50;101081.22;;;7.58;71.25
2339;BME280;1180;51.438;6.978;2023-03-04T03:37:15;101072.34;;;7.43;71.17
2339;BME280;1180;51.438;6.978;2023-03-04T03:39:41;101074.06;;;7.43;71.33
2339;BME280;1180;51.438;6.978;2023-03-04T03:42:06;101078.00;;;7.53;71.37
2339;BME280;1180;51.438;6.978;2023-03-04T03:44:32;101077.19;;;7.51;71.40
2339;BME280;1180;51.438;6.978;2023-03-04T03:46:57;101073.84;;;7.76;71.06
2339;BME280;1180;51.438;6.978;2023-03-04T03:49:23;101073.09;;;7.72;70.70
2339;BME280;1180;51.438;6.978;2023-03-04T03:51:48;101071.72;;;7.87;70.34
2339;BME280;1180;51.438;6.978;2023-03-04T03:54:14;101073.31;;;7.66;70.61
2339;BME280;1180;51.438;6.978;2023-03-04T03:56:39;101071.72;;;7.63;70.80
2339;BME280;1180;51.438;6.978;2023-03-04T03:59:04;101076.72;;;7.66;71.03
2339;BME280;1180;51.438;6.978;2023-03-04T04:01:30;101075.03;;;7.65;70.76
2339;BME280;1180;51.438;6.978;2023-03-04T04:03:57;101066.63;;;7.87;70.51
2339;BME280;1180;51.438;6.978;2023-03-04T04:06:23;101071.38;;;7.98;69.98
2339;BME280;1180;51.438;6.978;2023-03-04T04:08:48;101074.34;;;7.86;70.38
2339;BME280;1180;51.438;6.978;2023-03-04T04:11:14;101073.28;;;7.91;70.07
2339;BME280;1180;51.438;6.978;2023-03-04T04:13:39;101074.00;;;7.97;70.07
2339;BME280;1180;51.438;6.978;2023-03-04T04:16:05;101069.53;;;8.02;69.92
2339;BME280;1180;51.438;6.978;2023-03-04T04:18:31;101071.38;;;7.98;69.99
2339;BME280;1180;51.438;6.978;2023-03-04T04:20:57;101070.22;;;8.07;69.83
2339;BME280;1180;51.438;6.978;2023-03-04T04:23:23;101066.75;;;8.08;69.60
2339;BME280;1180;51.438;6.978;2023-03-04T04:25:48;101068.69;;;8.01;69.53
2339;BME280;1180;51.438;6.978;2023-03-04T04:28:14;101066.09;;;7.77;70.61
2339;BME280;1180;51.438;6.978;2023-03-04T04:30:40;101070.81;;;7.64;71.03
2339;BME280;1180;51.438;6.978;2023-03-04T04:33:05;101063.44;;;7.55;71.83
2339;BME280;1180;51.438;6.978;2023-03-04T04:35:32;101062.06;;;7.72;71.75
2339;BME280;1180;51.438;6.978;2023-03-04T04:37:59;101069.34;;;7.57;71.74
2339;BME280;1180;51.438;6.978;2023-03-04T04:40:25;101071.41;;;7.71;71.80
2339;BME280;1180;51.438;6.978;2023-03-04T04:42:50;101059.91;;;7.85;71.10
2339;BME280;1180;51.438;6.978;2023-03-04T04:45:16;101070.31;;;8.04;70.92
2339;BME280;1180;51.438;6.978;2023-03-04T04:47:41;101070.16;;;7.83;71.68
2339;BME280;1180;51.438;6.978;2023-03-04T04:50:07;101070.72;;;7.91;71.59
2339;BME280;1180;51.438;6.978;2023-03-04T04:52:32;101082.44;;;7.99;71.25
2339;BME280;1180;51.438;6.978;2023-03-04T04:54:58;101075.31;;;8.07;70.74
2339;BME280;1180;51.438;6.978;2023-03-04T04:57:23;101076.63;;;7.93;71.26
2339;BME280;1180;51.438;6.978;2023-03-04T04:59:49;101076.75;;;7.65;72.22
2339;BME280;1180;51.438;6.978;2023-03-04T05:02:15;101075.81;;;7.15;73.27
2339;BME280;1180;51.438;6.978;2023-03-04T05:04:40;101082.31;;;6.97;75.19
2339;BME280;1180;51.438;6.978;2023-03-04T05:07:05;101081.66;;;6.90;75.61
2339;BME280;1180;51.438;6.978;2023-03-04T05:09:31;101083.78;;;7.04;75.35
2339;BME280;1180;51.438;6.978;2023-03-04T05:11:57;101088.50;;;7.17;74.85
2339;BME280;1180;51.438;6.978;2023-03-04T05:14:22;101087.78;;;7.13;75.07
2339;BME280;1180;51.438;6.978;2023-03-04T05:16:48;101073.84;;;7.23;75.10
2339;BME280;1180;51.438;6.978;2023-03-04T05:19:13;101078.88;;;7.52;73.70
2339;BME280;1180;51.438;6.978;2023-03-04T05:21:39;101084.72;;;7.29;73.65
2339;BME280;1180;51.438;6.978;2023-03-04T05:24:05;101079.47;;;7.06;74.85
2339;BME280;1180;51.438;6.978;2023-03-04T05:26:30;101080.53;;;7.26;74.71
2339;BME280;1180;51.438;6.978;2023-03-04T05:28:56;101078.53;;;7.63;73.39
2339;BME280;1180;51.438;6.978;2023-03-04T05:31:21;101074.50;;;7.81;72.49
2339;BME280;1180;51.438;6.978;2023-03-04T05:33:47;101066.94;;;7.78;71.88
2339;BME280;1180;51.438;6.978;2023-03-04T05:36:12;101072.97;;;7.50;72.75
2339;BME280;1180;51.438;6.978;2023-03-04T05:38:38;101068.34;;;7.61;72.86
2339;BME280;1180;51.438;6.978;2023-03-04T05:41:05;101070.38;;;7.51;72.29
2339;BME280;1180;51.438;6.978;2023-03-04T05:43:32;101071.28;;;7.23;73.43
2339;BME280;1180;51.438;6.978;2023-03-04T05:46:01;101067.34;;;7.40;73.77
2339;BME280;1180;51.438;6.978;2023-03-04T05:48:27;101073.97;;;7.46;72.67
2339;BME280;1180;51.438;6.978;2023-03-04T05:50:58;101069.28;;;7.59;72.99
2339;BME280;1180;51.438;6.978;2023-03-04T05:53:25;101066.72;;;7.84;72.17
2339;BME280;1180;51.438;6.978;2023-03-04T05:55:51;101074.47;;;7.83;71.33
2339;BME280;1180;51.438;6.978;2023-03-04T05:58:17;101077.69;;;7.62;71.88
2339;BME280;1180;51.438;6.978;2023-03-04T06:00:43;101079.06;;;7.73;71.80
2339;BME280;1180;51.438;6.978;2023-03-04T06:03:15;101080.59;;;7.51;72.17
2339;BME280;1180;51.438;6.978;2023-03-04T06:05:41;101078.19;;;7.72;72.10
2339;BME280;1180;51.438;6.978;2023-03-04T06:08:07;101083.94;;;7.79;71.31
2339;BME280;1180;51.438;6.978;2023-03-04T06:10:32;101088.84;;;7.60;71.96
2339;BME280;1180;51.438;6.978;2023-03-04T06:12:58;101084.09;;;7.22;73.77
2339;BME280;1180;51.438;6.978;2023-03-04T06:15:23;101090.75;;;7.26;73.87
2339;BME280;1180;51.438;6.978;2023-03-04T06:17:49;101087.09;;;7.35;73.76
2339;BME280;1180;51.438;6.978;2023-03-04T06:20:14;101094.94;;;7.29;72.87
2339;BME280;1180;51.438;6.978;2023-03-04T06:22:40;101099.56;;;7.17;73.75
2339;BME280;1180;51.438;6.978;2023-03-04T06:25:06;101096.09;;;6.91;74.37
2339;BME280;1180;51.438;6.978;2023-03-04T06:27:32;101100.09;;;7.00;75.25
2339;BME280;1180;51.438;6.978;2023-03-04T06:29:57;101104.47;;;6.95;75.30
2339;BME280;1180;51.438;6.978;2023-03-04T06:32:23;101102.16;;;7.16;74.47
2339;BME280;1180;51.438;6.978;2023-03-04T06:34:48;101106.47;;;7.14;74.36
2339;BME280;1180;51.438;6.978;2023-03-04T06:37:14;101098.91;;;7.11;74.80
2339;BME280;1180;51.438;6.978;2023-03-04T06:39:39;101105.38;;;7.21;74.37
2339;BME280;1180;51.438;6.978;2023-03-04T06:42:05;101104.22;;;7.04;75.31
2339;BME280;1180;51.438;6.978;2023-03-04T06:44:30;101104.22;;;7.04;75.12
2339;BME280;1180;51.438;6.978;2023-03-04T06:46:56;101111.84;;;7.33;74.19
2339;BME280;1180;51.438;6.978;2023-03-04T06:49:21;101111.25;;;7.25;73.96
2339;BME280;1180;51.438;6.978;2023-03-04T06:51:47;101113.19;;;7.43;73.00
2339;BME280;1180;51.438;6.978;2023-03-04T06:54:13;101116.63;;;7.69;73.12
2339;BME280;1180;51.438;6.978;2023-03-04T06:56:39;101116.84;;;7.88;72.66
2339;BME280;1180;51.438;6.978;2023-03-04T06:59:04;101119.59;;;7.57;73.60
2339;BME280;1180;51.438;6.978;2023-03-04T07:01:30;101112.38;;;7.70;73.68
2339;BME280;1180;51.438;6.978;2023-03-04T07:03:56;101118.38;;;7.94;73.32
2339;BME280;1180;51.438;6.978;2023-03-04T07:06:25;101115.50;;;7.78;73.45
2339;BME280;1180;51.438;6.978;2023-03-04T07:08:51;101123.81;;;7.85;73.31
2339;BME280;1180;51.438;6.978;2023-03-04T07:11:19;101116.28;;;7.80;73.60
2339;BME280;1180;51.438;6.978;2023-03-04T07:13:48;101119.75;;;7.77;74.26
2339;BME280;1180;51.438;6.978;2023-03-04T07:16:18;101113.81;;;7.51;74.93
2339;BME280;1180;51.438;6.978;2023-03-04T07:18:44;101123.50;;;7.67;74.51
2339;BME280;1180;51.438;6.978;2023-03-04T07:21:11;101124.19;;;7.72;74.67
2339;BME280;1180;51.438;6.978;2023-03-04T07:23:38;101132.41;;;7.82;74.74
2339;BME280;1180;51.438;6.978;2023-03-04T07:26:04;101129.06;;;7.53;74.87
2339;BME280;1180;51.438;6.978;2023-03-04T07:28:29;101137.31;;;7.61;76.15
2339;BME280;1180;51.438;6.978;2023-03-04T07:30:55;101130.38;;;7.40;77.21
2339;BME280;1180;51.438;6.978;2023-03-04T07:33:21;101132.75;;;7.44;77.94
2339;BME280;1180;51.438;6.978;2023-03-04T07:35:47;101133.63;;;7.70;77.79
2339;BME280;1180;51.438;6.978;2023-03-04T07:38:12;101133.13;;;7.86;77.23
2339;BME280;1180;51.438;6.978;2023-03-04T07:40:38;101133.75;;;7.92;76.41
2339;BME280;1180;51.438;6.978;2023-03-04T07:43:03;101140.84;;;8.09;76.10
2339;BME280;1180;51.438;6.978;2023-03-04T07:45:30;101135.06;;;8.30;75.51
2339;BME280;1180;51.438;6.978;2023-03-04T07:47:57;101136.03;;;8.26;75.11
2339;BME280;1180;51.438;6.978;2023-03-04T07:50:22;101126.88;;;8.20;74.78
2339;BME280;1180;51.438;6.978;2023-03-04T07:52:48;101131.41;;;7.86;76.27
2339;BME280;1180;51.438;6.978;2023-03-04T07:55:16;101125.38;;;7.89;77.19
2339;BME280;1180;51.438;6.978;2023-03-04T07:57:44;101127.50;;;7.76;77.92
2339;BME280;1180;51.438;6.978;2023-03-04T08:00:11;101134.75;;;7.88;77.29
2339;BME280;1180;51.438;6.978;2023-03-04T08:02:36;101127.13;;;8.12;77.46
2339;BME280;1180;51.438;6.978;2023-03-04T08:05:02;101130.59;;;8.35;76.98
2339;BME280;1180;51.438;6.978;2023-03-04T08:07:27;101144.09;;;8.38;76.33
2339;BME280;1180;51.438;6.978;2023-03-04T08:09:53;101133.44;;;8.27;77.04
2339;BME280;1180;51.438;6.978;2023-03-04T08:12:18;101138.63;;;8.49;76.47
2339;BME280;1180;51.438;6.978;2023-03-04T08:14:44;101141.22;;;8.48;76.31
2339;BME280;1180;51.438;6.978;2023-03-04T08:17:09;101140.72;;;8.38;76.07
2339;BME280;1180;51.438;6.978;2023-03-04T08:19:35;101139.09;;;8.35;77.30
2339;BME280;1180;51.438;6.978;2023-03-04T08:22:01;101143.16;;;8.41;77.22
2339;BME280;1180;51.438;6.978;2023-03-04T08:24:26;101136.19;;;8.21;77.33
2339;BME280;1180;51.438;6.978;2023-03-04T08:26:52;101145.72;;;8.41;78.04
2339;BME280;1180;51.438;6.978;2023-03-04T08:29:21;101149.41;;;8.58;76.70
2339;BME280;1180;51.438;6.978;2023-03-04T08:31:47;101146.09;;;8.56;76.65
2339;BME280;1180;51.438;6.978;2023-03-04T08:34:13;101137.59;;;8.30;76.51
2339;BME280;1180;51.438;6.978;2023-03-04T08:36:40;101143.25;;;8.14;77.39
2339;BME280;1180;51.438;6.978;2023-03-04T08:39:07;101136.69;;;8.07;78.28
2339;BME280;1180;51.438;6.978;2023-03-04T08:41:32;101141.13;;;8.02;80.74
2339;BME280;1180;51.438;6.978;2023-03-04T08:43:59;101133.75;;;8.42;80.00
2339;BME280;1180;51.438;6.978;2023-03-04T08:46:25;101141.19;;;8.49;79.11
2339;BME280;1180;51.438;6.978;2023-03-04T08:48:50;101139.75;;;8.66;79.36
2339;BME280;1180;51.438;6.978;2023-03-04T08:51:15;101141.22;;;8.72;79.47
2339;BME280;1180;51.438;6.978;2023-03-04T08:53:41;101136.03;;;8.97;78.76
2339;BME280;1180;51.438;6.978;2023-03-04T08:56:07;101139.31;;;9.01;78.09
2339;BME280;1180;51.438;6.978;2023-03-04T08:58:33;101135.28;;;8.95;78.58
2339;BME280;1180;51.438;6.978;2023-03-04T09:01:00;101142.63;;;9.03;78.33
2339;BME280;1180;51.438;6.978;2023-03-04T09:03:26;101144.78;;;8.91;78.98
2339;BME280;1180;51.438;6.978;2023-03-04T09:05:52;101150.97;;;8.86;80.49
2339;BME280;1180;51.438;6.978;2023-03-04T09:08:17;101142.69;;;8.79;82.40
2339;BME280;1180;51.438;6.978;2023-03-04T09:10:44;101150.03;;;8.88;82.67
2339;BME280;1180;51.438;6.978;2023-03-04T09:13:13;101150.38;;;8.79;84.22
2339;BME280;1180;51.438;6.978;2023-03-04T09:15:46;101149.38;;;8.83;84.05
2339;BME280;1180;51.438;6.978;2023-03-04T09:18:12;101151.66;;;8.67;86.21
2339;BME280;1180;51.438;6.978;2023-03-04T09:20:38;101148.53;;;8.82;86.22
2339;BME280;1180;51.438;6.978;2023-03-04T09:23:04;101146.25;;;8.51;87.79
2339;BME280;1180;51.438;6.978;2023-03-04T09:25:30;101148.03;;;8.73;88.39
2339;BME280;1180;51.438;6.978;2023-03-04T09:27:55;101148.34;;;8.87;87.62
2339;BME280;1180;51.438;6.978;2023-03-04T09:30:21;101141.81;;;8.56;87.37
2339;BME280;1180;51.438;6.978;2023-03-04T09:32:46;101142.31;;;8.66;88.36
2339;BME280;1180;51.438;6.978;2023-03-04T09:35:12;101148.03;;;8.73;88.40
2339;BME280;1180;51.438;6.978;2023-03-04T09:37:37;101149.47;;;8.80;87.95
2339;BME280;1180;51.438;6.978;2023-03-04T09:40:04;101139.16;;;8.81;88.26
2339;BME280;1180;51.438;6.978;2023-03-04T09:42:37;101140.03;;;8.82;87.11
2339;BME280;1180;51.438;6.978;2023-03-04T09:45:07;101142.09;;;8.72;87.13
2339;BME280;1180;51.438;6.978;2023-03-04T09:47:33;101142.47;;;8.85;86.16
2339;BME280;1180;51.438;6.978;2023-03-04T09:50:06;101137.78;;;8.73;84.70
2339;BME280;1180;51.438;6.978;2023-03-04T09:55:31;101132.47;;;9.01;85.85
2339;BME280;1180;51.438;6.978;2023-03-04T10:03:16;101128.84;;;9.29;81.76
2339;BME280;1180;51.438;6.978;2023-03-04T10:11:01;101125.38;;;9.08;84.01
2339;BME280;1180;51.438;6.978;2023-03-04T10:13:42;101119.38;;;9.31;83.37
2339;BME280;1180;51.438;6.978;2023-03-04T10:16:11;101125.69;;;9.43;81.34
2339;BME280;1180;51.438;6.978;2023-03-04T10:18:45;101117.25;;;9.41;82.23
2339;BME280;1180;51.438;6.978;2023-03-04T10:21:43;101111.00;;;9.48;82.27
2339;BME280;1180;51.438;6.978;2023-03-04T10:24:12;101108.63;;;9.64;81.53
2339;BME280;1180;51.438;6.978;2023-03-04T10:26:41;101108.47;;;9.47;80.60
2339;BME280;1180;51.438;6.978;2023-03-04T10:29:14;101111.56;;;9.34;82.25
2339;BME280;1180;51.438;6.978;2023-03-04T10:31:40;101103.63;;;9.41;81.95
2339;BME280;1180;51.438;6.978;2023-03-04T10:34:10;101113.13;;;9.37;82.45
2339;BME280;1180;51.438;6.978;2023-03-04T10:39:17;101100.66;;;9.50;82.84
2339;BME280;1180;51.438;6.978;2023-03-04T10:41:45;101098.88;;;9.73;81.66
2339;BME280;1180;51.438;6.978;2023-03-04T10:44:17;101104.25;;;9.46;80.37
2339;BME280;1180;51.438;6.978;2023-03-04T10:46:45;101118.38;;;9.34;80.70
2339;BME280;1180;51.438;6.978;2023-03-04T10:49:12;101108.22;;;8.88;83.95
2339;BME280;1180;51.438;6.978;2023-03-04T10:52:17;101105.47;;;9.37;83.89
2339;BME280;1180;51.438;6.978;2023-03-04T10:54:56;101109.28;;;9.27;83.15
2339;BME280;1180;51.438;6.978;2023-03-04T10:57:36;101103.31;;;9.26;83.53
2339;BME280;1180;51.438;6.978;2023-03-04T11:00:31;101103.91;;;9.33;83.05
2339;BME280;1180;51.438;6.978;2023-03-04T11:03:24;101096.19;;;9.55;83.71
2339;BME280;1180;51.438;6.978;2023-03-04T11:08:40;101096.06;;;9.58;81.90
2339;BME280;1180;51.438;6.978;2023-03-04T11:11:58;101097.63;;;9.62;81.86
2339;BME280;1180;51.438;6.978;2023-03-04T11:14:25;101095.16;;;9.59;82.70
2339;BME280;1180;51.438;6.978;2023-03-04T11:19:22;101092.34;;;9.86;81.63
2339;BME280;1180;51.438;6.978;2023-03-04T11:21:49;101084.47;;;9.70;80.71
2339;BME280;1180;51.438;6.978;2023-03-04T11:24:20;101082.34;;;9.80;80.00
2339;BME280;1180;51.438;6.978;2023-03-04T11:27:00;101078.16;;;9.77;81.16
2339;BME280;1180;51.438;6.978;2023-03-04T11:29:34;101073.47;;;10.08;80.16
2339;BME280;1180;51.438;6.978;2023-03-04T11:32:10;101071.78;;;10.47;77.76
2339;BME280;1180;51.438;6.978;2023-03-04T11:34:43;101061.72;;;10.42;76.53
2339;BME280;1180;51.438;6.978;2023-03-04T11:39:57;101064.13;;;10.26;75.55
2339;BME280;1180;51.438;6.978;2023-03-04T11:42:47;101059.41;;;10.17;77.52
2339;BME280;1180;51.438;6.978;2023-03-04T11:45:27;101060.38;;;10.33;76.52
2339;BME280;1180;51.438;6.978;2023-03-04T11:48:16;101058.72;;;10.32;75.86
2339;BME280;1180;51.438;6.978;2023-03-04T11:56:52;101047.16;;;9.83;79.16
2339;BME280;1180;51.438;6.978;2023-03-04T11:59:28;101055.19;;;9.55;79.95
2339;BME280;1180;51.438;6.978;2023-03-04T12:02:01;101048.97;;;9.81;80.63
2339;BME280;1180;51.438;6.978;2023-03-04T12:10:05;101031.63;;;9.67;80.75
2339;BME280;1180;51.438;6.978;2023-03-04T12:21:22;101017.47;;;10.37;78.10
2339;BME280;1180;51.438;6.978;2023-03-04T12:32:49;101005.88;;;10.09;79.25
2339;BME280;1180;51.438;6.978;2023-03-04T12:35:41;101004.22;;;10.27;78.79
2339;BME280;1180;51.438;6.978;2023-03-04T12:50:06;100987.72;;;9.94;81.58
2339;BME280;1180;51.438;6.978;2023-03-04T12:55:14;100997.03;;;9.76;85.07
2339;BME280;1180;51.438;6.978;2023-03-04T12:57:41;100997.88;;;9.77;87.11
2339;BME280;1180;51.438;6.978;2023-03-04T13:08:30;100993.63;;;9.57;90.76
2339;BME280;1180;51.438;6.978;2023-03-04T13:19:49;100985.94;;;10.16;86.56
2339;BME280;1180;51.438;6.978;2023-03-04T13:24:58;100975.88;;;10.11;85.62
2339;BME280;1180;51.438;6.978;2023-03-04T13:43:40;100959.91;;;9.85;85.97
2339;BME280;1180;51.438;6.978;2023-03-04T13:51:31;100945.22;;;10.08;84.14
2339;BME280;1180;51.438;6.978;2023-03-04T13:56:27;100940.88;;;9.91;84.05
2339;BME280;1180;51.438;6.978;2023-03-04T14:02:15;100943.91;;;9.61;85.20
2339;BME280;1180;51.438;6.978;2023-03-04T14:07:31;100937.94;;;9.60;87.40
2339;BME280;1180;51.438;6.978;2023-03-04T14:12:40;100930.81;;;9.86;88.15
2339;BME280;1180;51.438;6.978;2023-03-04T14:15:26;100919.53;;;9.90;86.46
2339;BME280;1180;51.438;6.978;2023-03-04T14:17:53;100927.63;;;9.81;86.41
2339;BME280;1180;51.438;6.978;2023-03-04T14:22:53;100925.91;;;9.81;87.86
2339;BME280;1180;51.438;6.978;2023-03-04T14:25:21;100914.47;;;9.89;86.47
2339;BME280;1180;51.438;6.978;2023-03-04T14:27:47;100919.75;;;9.86;85.72
2339;BME280;1180;51.438;6.978;2023-03-04T14:30:26;100921.00;;;9.77;86.46
2339;BME280;1180;51.438;6.978;2023-03-04T14:32:54;100918.38;;;9.78;86.96
2339;BME280;1180;51.438;6.978;2023-03-04T14:35:24;100910.25;;;9.68;87.17
2339;BME280;1180;51.438;6.978;2023-03-04T14:37:58;100914.03;;;9.41;88.51
2339;BME280;1180;51.438;6.978;2023-03-04T14:40:28;100910.31;;;9.27;90.06
2339;BME280;1180;51.438;6.978;2023-03-04T14:43:00;100906.06;;;9.47;89.47
2339;BME280;1180;51.438;6.978;2023-03-04T14:45:28;100911.44;;;9.21;89.90
2339;BME280;1180;51.438;6.978;2023-03-04T14:47:59;100898.50;;;9.64;89.74
2339;BME280;1180;51.438;6.978;2023-03-04T14:50:29;100897.69;;;9.43;88.61
2339;BME280;1180;51.438;6.978;2023-03-04T14:53:16;100896.75;;;9.65;88.45
2339;BME280;1180;51.438;6.978;2023-03-04T14:56:05;100892.19;;;9.72;86.11
2339;BME280;1180;51.438;6.978;2023-03-04T14:58:33;100892.38;;;9.86;85.68
2339;BME280;1180;51.438;6.978;2023-03-04T15:01:16;100884.53;;;9.89;85.38
2339;BME280;1180;51.438;6.978;2023-03-04T15:04:09;100891.72;;;10.00;84.37
2339;BME280;1180;51.438;6.978;2023-03-04T15:06:38;100878.72;;;9.86;84.30
2339;BME280;1180;51.438;6.978;2023-03-04T15:11:44;100882.09;;;10.05;82.97
2339;BME280;1180;51.438;6.978;2023-03-04T15:14:49;100879.06;;;9.97;82.22
2339;BME280;1180;51.438;6.978;2023-03-04T15:17:30;100877.41;;;9.77;82.95
2339;BME280;1180;51.438;6.978;2023-03-04T15:22:35;100873.59;;;9.28;84.58
2339;BME280;1180;51.438;6.978;2023-03-04T15:25:01;100870.50;;;9.60;84.08
2339;BME280;1180;51.438;6.978;2023-03-04T15:27:29;100872.75;;;9.85;82.63
2339;BME280;1180;51.438;6.978;2023-03-04T15:29:57;100873.00;;;9.61;81.53
2339;BME280;1180;51.438;6.978;2023-03-04T15:32:28;100874.75;;;9.21;83.13
2339;BME280;1180;51.438;6.978;2023-03-04T15:34:54;100864.38;;;9.24;83.24
2339;BME280;1180;51.438;6.978;2023-03-04T15:37:26;100870.41;;;9.42;82.67
2339;BME280;1180;51.438;6.978;2023-03-04T15:39:54;100873.78;;;9.23;82.43
2339;BME280;1180;51.438;6.978;2023-03-04T15:42:21;100872.00;;;9.25;82.45